sensor_id;sensor_type;location;lat;lon;timestamp;temperature;humidity
56298;DHT22;42208;6.376;-10.782;2023-02-28T00:01:31;26.90;99.90
56298;DHT22;42208;6.376;-10.782;2023-02-28T00:04:00;26.90;99.90
56298;DHT22;42208;6.376;-10.782;2023-02-28T00:06:28;26.90;99.90
56298;DHT22;42208;6.376;-10.782;2023-02-28T00:08:57;26.90;99.90
56298;DHT22;42208;6.376;-10.782;2023-02-28T00:11:25;26.90;99.90
56298;DHT22;42208;6.376;-10.782;2023-02-28T00:13:54;26.90;99.90
56298;DHT22;42208;6.376;-10.782;2023-02-28T00:16:22;26.90;99.90
56298;DHT22;42208;6.376;-10.782;2023-02-28T00:18:51;26.90;99.90
56298;DHT22;42208;6.376;-10.782;2023-02-28T00:21:20;26.90;99.90
56298;DHT22;42208;6.376;-10.782;2023-02-28T00:23:48;26.90;99.90
56298;DHT22;42208;6.376;-10.782;2023-02-28T00:26:17;26.90;99.90
56298;DHT22;42208;6.376;-10.782;2023-02-28T00:28:48;26.90;99.90
56298;DHT22;42208;6.376;-10.782;2023-02-28T00:31:16;26.80;99.90
56298;DHT22;42208;6.376;-10.782;2023-02-28T00:33:45;26.90;99.90
56298;DHT22;42208;6.376;-10.782;2023-02-28T00:36:14;26.80;99.90
56298;DHT22;42208;6.376;-10.782;2023-02-28T00:38:42;26.90;99.90
56298;DHT22;42208;6.376;-10.782;2023-02-28T00:41:11;26.90;99.90
56298;DHT22;42208;6.376;-10.782;2023-02-28T00:43:40;26.90;99.90
56298;DHT22;42208;6.376;-10.782;2023-02-28T00:46:10;26.80;99.90
56298;DHT22;42208;6.376;-10.782;2023-02-28T00:48:39;26.80;99.90
56298;DHT22;42208;6.376;-10.782;2023-02-28T00:51:08;26.90;99.90
56298;DHT22;42208;6.376;-10.782;2023-02-28T00:53:36;26.90;99.90
56298;DHT22;42208;6.376;-10.782;2023-02-28T00:56:05;26.80;99.90
56298;DHT22;42208;6.376;-10.782;2023-02-28T00:58:33;26.80;99.90
56298;DHT22;42208;6.376;-10.782;2023-02-28T01:01:01;26.90;99.90
56298;DHT22;42208;6.376;-10.782;2023-02-28T01:03:30;26.80;99.90
56298;DHT22;42208;6.376;-10.782;2023-02-28T01:05:59;26.90;99.90
56298;DHT22;42208;6.376;-10.782;2023-02-28T01:08:27;26.80;99.90
56298;DHT22;42208;6.376;-10.782;2023-02-28T01:10:55;26.80;99.90
56298;DHT22;42208;6.376;-10.782;2023-02-28T01:13:24;26.90;99.90
56298;DHT22;42208;6.376;-10.782;2023-02-28T01:15:55;26.80;99.90
56298;DHT22;42208;6.376;-10.782;2023-02-28T01:18:24;26.80;99.90
56298;DHT22;42208;6.376;-10.782;2023-02-28T01:20:52;26.80;99.90
56298;DHT22;42208;6.376;-10.782;2023-02-28T01:23:22;26.80;99.90
56298;DHT22;42208;6.376;-10.782;2023-02-28T01:25:51;26.80;99.90
56298;DHT22;42208;6.376;-10.782;2023-02-28T01:28:20;26.80;99.90
56298;DHT22;42208;6.376;-10.782;2023-02-28T01:30:50;26.80;99.90
56298;DHT22;42208;6.376;-10.782;2023-02-28T01:33:20;26.80;99.90
56298;DHT22;42208;6.376;-10.782;2023-02-28T01:35:48;26.80;99.90
56298;DHT22;42208;6.376;-10.782;2023-02-28T01:38:17;26.80;99.90
56298;DHT22;42208;6.376;-10.782;2023-02-28T01:40:52;26.80;99.90
56298;DHT22;42208;6.376;-10.782;2023-02-28T01:43:53;26.80;99.90
56298;DHT22;42208;6.376;-10.782;2023-02-28T01:46:19;26.80;99.90
56298;DHT22;42208;6.376;-10.782;2023-02-28T01:54:07;26.70;99.90
56298;DHT22;42208;6.376;-10.782;2023-02-28T01:56:37;26.70;99.90
56298;DHT22;42208;6.376;-10.782;2023-02-28T01:59:05;26.60;99.90
56298;DHT22;42208;6.376;-10.782;2023-02-28T02:01:34;26.60;99.90
56298;DHT22;42208;6.376;-10.782;2023-02-28T02:04:03;26.50;99.90
56298;DHT22;42208;6.376;-10.782;2023-02-28T02:06:43;26.50;99.90
56298;DHT22;42208;6.376;-10.782;2023-02-28T02:09:12;26.50;99.90
56298;DHT22;42208;6.376;-10.782;2023-02-28T02:11:42;26.50;99.90
56298;DHT22;42208;6.376;-10.782;2023-02-28T02:17:14;26.40;99.90
56298;DHT22;42208;6.376;-10.782;2023-02-28T02:20:42;26.40;99.90
56298;DHT22;42208;6.376;-10.782;2023-02-28T02:23:20;26.40;99.90
56298;DHT22;42208;6.376;-10.782;2023-02-28T02:40:03;26.20;99.90
56298;DHT22;42208;6.376;-10.782;2023-02-28T02:45:24;26.20;99.90
56298;DHT22;42208;6.376;-10.782;2023-02-28T02:47:54;26.20;99.90
56298;DHT22;42208;6.376;-10.782;2023-02-28T02:50:38;26.20;99.90
56298;DHT22;42208;6.376;-10.782;2023-02-28T02:53:07;26.10;99.90
56298;DHT22;42208;6.376;-10.782;2023-02-28T02:55:41;26.10;99.90
56298;DHT22;42208;6.376;-10.782;2023-02-28T02:58:16;26.10;99.90
56298;DHT22;42208;6.376;-10.782;2023-02-28T03:00:50;26.10;99.90
56298;DHT22;42208;6.376;-10.782;2023-02-28T03:03:20;26.10;99.90
56298;DHT22;42208;6.376;-10.782;2023-02-28T03:05:50;26.10;99.90
56298;DHT22;42208;6.376;-10.782;2023-02-28T03:08:19;26.10;99.90
56298;DHT22;42208;6.376;-10.782;2023-02-28T03:10:52;26.10;99.90
56298;DHT22;42208;6.376;-10.782;2023-02-28T03:13:44;26.10;99.90
56298;DHT22;42208;6.376;-10.782;2023-02-28T03:28:05;26.10;99.90
56298;DHT22;42208;6.376;-10.782;2023-02-28T03:36:39;26.10;99.90
56298;DHT22;42208;6.376;-10.782;2023-02-28T03:39:16;26.10;99.90
56298;DHT22;42208;6.376;-10.782;2023-02-28T03:41:50;26.00;99.90
56298;DHT22;42208;6.376;-10.782;2023-02-28T03:44:32;26.00;99.90
56298;DHT22;42208;6.376;-10.782;2023-02-28T03:49:47;26.00;99.90
56298;DHT22;42208;6.376;-10.782;2023-02-28T03:52:19;25.90;99.90
56298;DHT22;42208;6.376;-10.782;2023-02-28T03:54:53;26.00;99.90
56298;DHT22;42208;6.376;-10.782;2023-02-28T04:00:17;25.90;99.90
56298;DHT22;42208;6.376;-10.782;2023-02-28T04:02:46;25.90;99.90
56298;DHT22;42208;6.376;-10.782;2023-02-28T04:05:15;25.90;99.90
56298;DHT22;42208;6.376;-10.782;2023-02-28T04:07:43;25.90;99.90
56298;DHT22;42208;6.376;-10.782;2023-02-28T04:10:12;25.90;99.90
56298;DHT22;42208;6.376;-10.782;2023-02-28T04:12:41;25.90;99.90
56298;DHT22;42208;6.376;-10.782;2023-02-28T04:15:09;25.90;99.90
56298;DHT22;42208;6.376;-10.782;2023-02-28T04:17:38;25.90;99.90
56298;DHT22;42208;6.376;-10.782;2023-02-28T04:20:06;25.90;99.90
56298;DHT22;42208;6.376;-10.782;2023-02-28T04:22:36;25.90;99.90
56298;DHT22;42208;6.376;-10.782;2023-02-28T04:25:05;25.90;99.90
56298;DHT22;42208;6.376;-10.782;2023-02-28T04:27:33;25.90;99.90
56298;DHT22;42208;6.376;-10.782;2023-02-28T04:30:02;25.80;99.90
56298;DHT22;42208;6.376;-10.782;2023-02-28T04:32:30;25.80;99.90
56298;DHT22;42208;6.376;-10.782;2023-02-28T04:34:59;25.80;99.90
56298;DHT22;42208;6.376;-10.782;2023-02-28T04:37:27;25.80;99.90
56298;DHT22;42208;6.376;-10.782;2023-02-28T04:39:56;25.80;99.90
56298;DHT22;42208;6.376;-10.782;2023-02-28T04:42:24;25.80;99.90
56298;DHT22;42208;6.376;-10.782;2023-02-28T04:44:52;25.80;99.90
56298;DHT22;42208;6.376;-10.782;2023-02-28T04:47:20;25.80;99.90
56298;DHT22;42208;6.376;-10.782;2023-02-28T04:49:48;25.70;99.90
56298;DHT22;42208;6.376;-10.782;2023-02-28T04:52:17;25.70;99.90
56298;DHT22;42208;6.376;-10.782;2023-02-28T04:54:45;25.70;99.90
56298;DHT22;42208;6.376;-10.782;2023-02-28T04:57:13;25.70;99.90
56298;DHT22;42208;6.376;-10.782;2023-02-28T04:59:42;25.70;99.90
56298;DHT22;42208;6.376;-10.782;2023-02-28T05:02:10;25.70;99.90
56298;DHT22;42208;6.376;-10.782;2023-02-28T05:04:38;25.80;99.90
56298;DHT22;42208;6.376;-10.782;2023-02-28T05:07:06;25.80;99.90
56298;DHT22;42208;6.376;-10.782;2023-02-28T05:09:35;25.80;99.90
56298;DHT22;42208;6.376;-10.782;2023-02-28T05:12:03;25.80;99.90
56298;DHT22;42208;6.376;-10.782;2023-02-28T05:14:31;25.80;99.90
56298;DHT22;42208;6.376;-10.782;2023-02-28T05:17:00;25.70;99.90
56298;DHT22;42208;6.376;-10.782;2023-02-28T05:19:28;25.70;99.90
56298;DHT22;42208;6.376;-10.782;2023-02-28T05:21:56;25.70;99.90
56298;DHT22;42208;6.376;-10.782;2023-02-28T05:24:24;25.60;99.90
56298;DHT22;42208;6.376;-10.782;2023-02-28T05:26:54;25.60;99.90
56298;DHT22;42208;6.376;-10.782;2023-02-28T05:29:22;25.60;99.90
56298;DHT22;42208;6.376;-10.782;2023-02-28T05:31:50;25.70;99.90
56298;DHT22;42208;6.376;-10.782;2023-02-28T05:34:19;25.70;99.90
56298;DHT22;42208;6.376;-10.782;2023-02-28T05:36:47;25.70;99.90
56298;DHT22;42208;6.376;-10.782;2023-02-28T05:39:16;25.70;99.90
56298;DHT22;42208;6.376;-10.782;2023-02-28T05:41:44;25.70;99.90
56298;DHT22;42208;6.376;-10.782;2023-02-28T05:44:12;25.70;99.90
56298;DHT22;42208;6.376;-10.782;2023-02-28T05:46:40;25.70;99.90
56298;DHT22;42208;6.376;-10.782;2023-02-28T05:49:09;25.70;99.90
56298;DHT22;42208;6.376;-10.782;2023-02-28T05:51:37;25.70;99.90
56298;DHT22;42208;6.376;-10.782;2023-02-28T05:54:06;25.70;99.90
56298;DHT22;42208;6.376;-10.782;2023-02-28T05:56:34;25.70;99.90
56298;DHT22;42208;6.376;-10.782;2023-02-28T05:59:03;25.70;99.90
56298;DHT22;42208;6.376;-10.782;2023-02-28T06:01:34;25.70;99.90
56298;DHT22;42208;6.376;-10.782;2023-02-28T06:04:05;25.70;99.90
56298;DHT22;42208;6.376;-10.782;2023-02-28T06:06:33;25.70;99.90
56298;DHT22;42208;6.376;-10.782;2023-02-28T06:09:06;25.70;99.90
56298;DHT22;42208;6.376;-10.782;2023-02-28T06:11:35;25.70;99.90
56298;DHT22;42208;6.376;-10.782;2023-02-28T06:14:03;25.60;99.90
56298;DHT22;42208;6.376;-10.782;2023-02-28T06:16:34;25.60;99.90
56298;DHT22;42208;6.376;-10.782;2023-02-28T06:19:03;25.70;99.90
56298;DHT22;42208;6.376;-10.782;2023-02-28T06:21:32;25.70;99.90
56298;DHT22;42208;6.376;-10.782;2023-02-28T06:24:01;25.60;99.90
56298;DHT22;42208;6.376;-10.782;2023-02-28T06:26:30;25.60;99.90
56298;DHT22;42208;6.376;-10.782;2023-02-28T06:28:58;25.60;99.90
56298;DHT22;42208;6.376;-10.782;2023-02-28T06:31:27;25.60;99.90
56298;DHT22;42208;6.376;-10.782;2023-02-28T06:33:56;25.60;99.90
56298;DHT22;42208;6.376;-10.782;2023-02-28T06:36:24;25.60;99.90
56298;DHT22;42208;6.376;-10.782;2023-02-28T06:38:52;25.60;99.90
56298;DHT22;42208;6.376;-10.782;2023-02-28T06:41:25;25.60;99.90
56298;DHT22;42208;6.376;-10.782;2023-02-28T06:43:55;25.60;99.90
56298;DHT22;42208;6.376;-10.782;2023-02-28T06:46:23;25.60;99.90
56298;DHT22;42208;6.376;-10.782;2023-02-28T06:48:52;25.60;99.90
56298;DHT22;42208;6.376;-10.782;2023-02-28T06:51:21;25.60;99.90
56298;DHT22;42208;6.376;-10.782;2023-02-28T06:53:50;25.60;99.90
56298;DHT22;42208;6.376;-10.782;2023-02-28T06:56:18;25.60;99.90
56298;DHT22;42208;6.376;-10.782;2023-02-28T06:58:48;25.60;99.90
56298;DHT22;42208;6.376;-10.782;2023-02-28T07:01:17;25.60;99.90
56298;DHT22;42208;6.376;-10.782;2023-02-28T07:03:46;25.60;99.90
56298;DHT22;42208;6.376;-10.782;2023-02-28T07:06:15;25.70;99.90
56298;DHT22;42208;6.376;-10.782;2023-02-28T07:08:43;25.70;99.90
56298;DHT22;42208;6.376;-10.782;2023-02-28T07:11:11;25.70;99.90
56298;DHT22;42208;6.376;-10.782;2023-02-28T07:13:39;25.70;99.90
56298;DHT22;42208;6.376;-10.782;2023-02-28T07:16:10;25.70;99.90
56298;DHT22;42208;6.376;-10.782;2023-02-28T07:18:39;25.70;99.90
56298;DHT22;42208;6.376;-10.782;2023-02-28T07:21:09;25.70;99.90
56298;DHT22;42208;6.376;-10.782;2023-02-28T07:23:38;25.70;99.90
56298;DHT22;42208;6.376;-10.782;2023-02-28T07:26:07;25.70;99.90
56298;DHT22;42208;6.376;-10.782;2023-02-28T07:28:38;25.70;99.90
56298;DHT22;42208;6.376;-10.782;2023-02-28T07:31:07;25.70;99.90
56298;DHT22;42208;6.376;-10.782;2023-02-28T07:33:36;25.70;99.90
56298;DHT22;42208;6.376;-10.782;2023-02-28T07:36:07;25.70;99.90
56298;DHT22;42208;6.376;-10.782;2023-02-28T07:38:36;25.80;99.90
56298;DHT22;42208;6.376;-10.782;2023-02-28T07:41:05;25.80;99.90
56298;DHT22;42208;6.376;-10.782;2023-02-28T07:43:33;25.80;99.90
56298;DHT22;42208;6.376;-10.782;2023-02-28T07:46:07;25.80;99.90
56298;DHT22;42208;6.376;-10.782;2023-02-28T07:48:36;25.80;99.90
56298;DHT22;42208;6.376;-10.782;2023-02-28T07:51:04;25.90;99.90
56298;DHT22;42208;6.376;-10.782;2023-02-28T07:53:33;25.90;99.90
56298;DHT22;42208;6.376;-10.782;2023-02-28T07:56:02;25.90;99.90
56298;DHT22;42208;6.376;-10.782;2023-02-28T07:58:31;25.90;99.90
56298;DHT22;42208;6.376;-10.782;2023-02-28T08:01:09;25.90;99.90
56298;DHT22;42208;6.376;-10.782;2023-02-28T08:03:39;25.90;99.90
56298;DHT22;42208;6.376;-10.782;2023-02-28T08:06:13;25.90;99.90
56298;DHT22;42208;6.376;-10.782;2023-02-28T08:08:42;25.90;99.90
56298;DHT22;42208;6.376;-10.782;2023-02-28T08:11:11;26.00;99.90
56298;DHT22;42208;6.376;-10.782;2023-02-28T08:13:39;26.10;99.90
56298;DHT22;42208;6.376;-10.782;2023-02-28T08:16:07;26.10;99.90
56298;DHT22;42208;6.376;-10.782;2023-02-28T08:18:36;26.10;99.90
56298;DHT22;42208;6.376;-10.782;2023-02-28T08:21:08;26.20;99.90
56298;DHT22;42208;6.376;-10.782;2023-02-28T08:23:37;26.30;99.90
56298;DHT22;42208;6.376;-10.782;2023-02-28T08:26:06;26.30;99.90
56298;DHT22;42208;6.376;-10.782;2023-02-28T08:28:34;26.30;99.90
56298;DHT22;42208;6.376;-10.782;2023-02-28T08:31:08;26.30;99.90
56298;DHT22;42208;6.376;-10.782;2023-02-28T08:33:37;26.40;99.90
56298;DHT22;42208;6.376;-10.782;2023-02-28T08:36:07;26.40;99.90
56298;DHT22;42208;6.376;-10.782;2023-02-28T08:38:36;26.40;99.90
56298;DHT22;42208;6.376;-10.782;2023-02-28T08:41:08;26.40;99.90
56298;DHT22;42208;6.376;-10.782;2023-02-28T08:43:38;26.40;99.90
56298;DHT22;42208;6.376;-10.782;2023-02-28T08:46:08;26.50;99.90
56298;DHT22;42208;6.376;-10.782;2023-02-28T08:48:39;26.60;99.90
56298;DHT22;42208;6.376;-10.782;2023-02-28T08:51:10;26.60;99.90
56298;DHT22;42208;6.376;-10.782;2023-02-28T08:53:40;26.60;99.90
56298;DHT22;42208;6.376;-10.782;2023-02-28T08:56:14;26.60;99.90
56298;DHT22;42208;6.376;-10.782;2023-02-28T08:58:44;26.70;99.90
56298;DHT22;42208;6.376;-10.782;2023-02-28T09:01:18;26.70;99.90
56298;DHT22;42208;6.376;-10.782;2023-02-28T09:03:49;26.80;99.90
56298;DHT22;42208;6.376;-10.782;2023-02-28T09:06:19;26.80;99.90
56298;DHT22;42208;6.376;-10.782;2023-02-28T09:08:48;26.90;99.90
56298;DHT22;42208;6.376;-10.782;2023-02-28T09:11:16;26.90;99.90
56298;DHT22;42208;6.376;-10.782;2023-02-28T09:13:45;26.90;99.90
56298;DHT22;42208;6.376;-10.782;2023-02-28T09:16:15;26.90;99.90
56298;DHT22;42208;6.376;-10.782;2023-02-28T09:18:44;27.00;99.90
56298;DHT22;42208;6.376;-10.782;2023-02-28T09:21:14;27.10;99.90
56298;DHT22;42208;6.376;-10.782;2023-02-28T09:23:44;27.10;99.90
56298;DHT22;42208;6.376;-10.782;2023-02-28T09:26:26;27.20;99.90
56298;DHT22;42208;6.376;-10.782;2023-02-28T09:29:05;27.20;99.90
56298;DHT22;42208;6.376;-10.782;2023-02-28T09:31:33;27.30;99.90
56298;DHT22;42208;6.376;-10.782;2023-02-28T09:34:03;27.40;99.90
56298;DHT22;42208;6.376;-10.782;2023-02-28T09:36:31;27.40;99.90
56298;DHT22;42208;6.376;-10.782;2023-02-28T09:39:11;27.40;99.90
56298;DHT22;42208;6.376;-10.782;2023-02-28T09:41:48;27.50;99.90
56298;DHT22;42208;6.376;-10.782;2023-02-28T09:44:43;27.50;99.90
56298;DHT22;42208;6.376;-10.782;2023-02-28T09:49:58;27.70;99.90
56298;DHT22;42208;6.376;-10.782;2023-02-28T09:52:30;27.80;99.90
56298;DHT22;42208;6.376;-10.782;2023-02-28T09:55:01;27.90;99.90
56298;DHT22;42208;6.376;-10.782;2023-02-28T09:57:40;28.00;99.90
56298;DHT22;42208;6.376;-10.782;2023-02-28T10:05:28;28.10;99.90
56298;DHT22;42208;6.376;-10.782;2023-02-28T10:08:14;28.20;99.90
56298;DHT22;42208;6.376;-10.782;2023-02-28T10:10:50;28.20;99.90
56298;DHT22;42208;6.376;-10.782;2023-02-28T10:16:13;28.40;99.90
56298;DHT22;42208;6.376;-10.782;2023-02-28T10:18:44;28.40;99.90
56298;DHT22;42208;6.376;-10.782;2023-02-28T10:21:31;28.50;99.90
56298;DHT22;42208;6.376;-10.782;2023-02-28T10:27:01;28.60;99.90
56298;DHT22;42208;6.376;-10.782;2023-02-28T10:29:32;28.60;99.90
56298;DHT22;42208;6.376;-10.782;2023-02-28T10:32:02;28.60;99.90
56298;DHT22;42208;6.376;-10.782;2023-02-28T10:34:31;28.70;99.90
56298;DHT22;42208;6.376;-10.782;2023-02-28T10:37:00;28.70;99.90
56298;DHT22;42208;6.376;-10.782;2023-02-28T10:39:47;28.60;99.90
56298;DHT22;42208;6.376;-10.782;2023-02-28T10:42:33;28.70;99.90
56298;DHT22;42208;6.376;-10.782;2023-02-28T10:56:17;28.80;99.90
56298;DHT22;42208;6.376;-10.782;2023-02-28T10:58:58;28.90;99.90
56298;DHT22;42208;6.376;-10.782;2023-02-28T11:01:44;28.90;99.90
56298;DHT22;42208;6.376;-10.782;2023-02-28T11:06:59;28.90;99.90
56298;DHT22;42208;6.376;-10.782;2023-02-28T11:09:34;28.90;99.90
56298;DHT22;42208;6.376;-10.782;2023-02-28T11:12:08;28.80;99.90
56298;DHT22;42208;6.376;-10.782;2023-02-28T11:14:49;28.90;99.90
56298;DHT22;42208;6.376;-10.782;2023-02-28T11:17:29;29.00;99.90
56298;DHT22;42208;6.376;-10.782;2023-02-28T11:20:06;29.00;99.90
56298;DHT22;42208;6.376;-10.782;2023-02-28T11:22:43;29.00;99.90
56298;DHT22;42208;6.376;-10.782;2023-02-28T11:25:30;29.10;99.90
56298;DHT22;42208;6.376;-10.782;2023-02-28T11:28:02;29.10;99.90
56298;DHT22;42208;6.376;-10.782;2023-02-28T11:30:39;29.00;99.90
56298;DHT22;42208;6.376;-10.782;2023-02-28T11:34:00;29.10;99.90
56298;DHT22;42208;6.376;-10.782;2023-02-28T11:36:27;29.20;99.90
56298;DHT22;42208;6.376;-10.782;2023-02-28T11:38:59;29.20;99.90
56298;DHT22;42208;6.376;-10.782;2023-02-28T11:47:17;29.20;99.90
56298;DHT22;42208;6.376;-10.782;2023-02-28T11:55:23;29.30;99.90
56298;DHT22;42208;6.376;-10.782;2023-02-28T12:06:34;29.70;99.90
56298;DHT22;42208;6.376;-10.782;2023-02-28T12:11:52;29.60;99.90
56298;DHT22;42208;6.376;-10.782;2023-02-28T12:20:07;29.50;99.90
56298;DHT22;42208;6.376;-10.782;2023-02-28T12:28:10;29.40;99.90
56298;DHT22;42208;6.376;-10.782;2023-02-28T12:30:49;29.50;99.90
56298;DHT22;42208;6.376;-10.782;2023-02-28T12:33:24;29.60;99.90
56298;DHT22;42208;6.376;-10.782;2023-02-28T12:35:58;29.80;99.90
56298;DHT22;42208;6.376;-10.782;2023-02-28T12:38:41;29.90;99.90
56298;DHT22;42208;6.376;-10.782;2023-02-28T12:41:37;29.90;99.90
56298;DHT22;42208;6.376;-10.782;2023-02-28T12:44:26;29.90;99.90
56298;DHT22;42208;6.376;-10.782;2023-02-28T12:47:08;29.90;99.90
56298;DHT22;42208;6.376;-10.782;2023-02-28T12:49:42;30.00;99.90
56298;DHT22;42208;6.376;-10.782;2023-02-28T12:52:18;29.90;99.90
56298;DHT22;42208;6.376;-10.782;2023-02-28T12:55:05;29.70;99.90
56298;DHT22;42208;6.376;-10.782;2023-02-28T12:57:50;29.80;99.90
56298;DHT22;42208;6.376;-10.782;2023-02-28T13:00:24;29.60;99.90
56298;DHT22;42208;6.376;-10.782;2023-02-28T13:03:10;29.70;99.90
56298;DHT22;42208;6.376;-10.782;2023-02-28T13:10:59;29.70;99.90
56298;DHT22;42208;6.376;-10.782;2023-02-28T13:13:32;29.70;99.90
56298;DHT22;42208;6.376;-10.782;2023-02-28T13:16:04;29.80;99.90
56298;DHT22;42208;6.376;-10.782;2023-02-28T13:21:21;29.70;99.90
56298;DHT22;42208;6.376;-10.782;2023-02-28T13:27:10;29.80;99.90
56298;DHT22;42208;6.376;-10.782;2023-02-28T13:29:40;29.70;99.90
56298;DHT22;42208;6.376;-10.782;2023-02-28T13:34:46;29.90;99.90
56298;DHT22;42208;6.376;-10.782;2023-02-28T13:39:52;30.00;99.90
56298;DHT22;42208;6.376;-10.782;2023-02-28T13:47:41;29.90;99.90
56298;DHT22;42208;6.376;-10.782;2023-02-28T14:01:25;29.80;99.90
56298;DHT22;42208;6.376;-10.782;2023-02-28T14:04:39;29.80;99.90
56298;DHT22;42208;6.376;-10.782;2023-02-28T14:07:09;29.80;99.90
56298;DHT22;42208;6.376;-10.782;2023-02-28T14:09:51;29.90;99.90
56298;DHT22;42208;6.376;-10.782;2023-02-28T14:18:21;29.90;99.90
56298;DHT22;42208;6.376;-10.782;2023-02-28T14:23:58;30.00;99.90
56298;DHT22;42208;6.376;-10.782;2023-02-28T14:35:40;29.90;99.90
56298;DHT22;42208;6.376;-10.782;2023-02-28T14:38:22;30.00;99.90
56298;DHT22;42208;6.376;-10.782;2023-02-28T14:40:52;30.00;99.90
56298;DHT22;42208;6.376;-10.782;2023-02-28T14:43:27;30.20;99.90
56298;DHT22;42208;6.376;-10.782;2023-02-28T14:46:02;30.10;99.90
56298;DHT22;42208;6.376;-10.782;2023-02-28T14:48:31;29.90;99.90
56298;DHT22;42208;6.376;-10.782;2023-02-28T14:51:01;29.90;99.90
56298;DHT22;42208;6.376;-10.782;2023-02-28T14:53:35;29.90;99.90
56298;DHT22;42208;6.376;-10.782;2023-02-28T14:56:05;30.00;99.90
56298;DHT22;42208;6.376;-10.782;2023-02-28T14:58:34;29.90;99.90
56298;DHT22;42208;6.376;-10.782;2023-02-28T15:01:03;30.00;99.90
56298;DHT22;42208;6.376;-10.782;2023-02-28T15:03:37;29.90;99.90
56298;DHT22;42208;6.376;-10.782;2023-02-28T15:06:16;30.00;99.90
56298;DHT22;42208;6.376;-10.782;2023-02-28T15:08:45;30.00;99.90
56298;DHT22;42208;6.376;-10.782;2023-02-28T15:11:17;30.00;99.90
56298;DHT22;42208;6.376;-10.782;2023-02-28T15:13:48;29.90;99.90
56298;DHT22;42208;6.376;-10.782;2023-02-28T15:16:19;30.10;99.90
56298;DHT22;42208;6.376;-10.782;2023-02-28T15:18:53;30.20;99.90
56298;DHT22;42208;6.376;-10.782;2023-02-28T15:21:30;30.20;99.90
56298;DHT22;42208;6.376;-10.782;2023-02-28T15:26:39;30.10;99.90
56298;DHT22;42208;6.376;-10.782;2023-02-28T15:29:20;30.30;99.90
56298;DHT22;42208;6.376;-10.782;2023-02-28T15:31:58;30.30;99.90
56298;DHT22;42208;6.376;-10.782;2023-02-28T15:34:40;30.30;99.90
56298;DHT22;42208;6.376;-10.782;2023-02-28T15:37:40;30.40;99.90
56298;DHT22;42208;6.376;-10.782;2023-02-28T15:40:22;30.60;99.90
56298;DHT22;42208;6.376;-10.782;2023-02-28T15:43:12;30.50;99.90
56298;DHT22;42208;6.376;-10.782;2023-02-28T15:45:47;30.70;99.90
56298;DHT22;42208;6.376;-10.782;2023-02-28T15:48:22;30.30;99.90
56298;DHT22;42208;6.376;-10.782;2023-02-28T15:51:09;30.40;99.90
56298;DHT22;42208;6.376;-10.782;2023-02-28T15:53:51;30.80;99.90
56298;DHT22;42208;6.376;-10.782;2023-02-28T15:56:26;30.80;99.90
56298;DHT22;42208;6.376;-10.782;2023-02-28T15:58:56;31.00;99.90
56298;DHT22;42208;6.376;-10.782;2023-02-28T16:01:28;31.00;99.90
56298;DHT22;42208;6.376;-10.782;2023-02-28T16:04:02;31.00;99.90
56298;DHT22;42208;6.376;-10.782;2023-02-28T16:06:32;30.30;99.90
56298;DHT22;42208;6.376;-10.782;2023-02-28T16:09:02;30.50;99.90
56298;DHT22;42208;6.376;-10.782;2023-02-28T16:11:34;30.60;99.90
56298;DHT22;42208;6.376;-10.782;2023-02-28T16:14:03;30.80;99.90
56298;DHT22;42208;6.376;-10.782;2023-02-28T16:16:32;31.20;99.90
56298;DHT22;42208;6.376;-10.782;2023-02-28T16:19:04;31.20;99.90
56298;DHT22;42208;6.376;-10.782;2023-02-28T16:21:32;31.40;99.90
56298;DHT22;42208;6.376;-10.782;2023-02-28T16:24:02;31.60;99.90
56298;DHT22;42208;6.376;-10.782;2023-02-28T16:26:31;31.40;99.90
56298;DHT22;42208;6.376;-10.782;2023-02-28T16:29:00;31.30;99.90
56298;DHT22;42208;6.376;-10.782;2023-02-28T16:31:29;31.10;99.90
56298;DHT22;42208;6.376;-10.782;2023-02-28T16:33:57;31.10;99.90
56298;DHT22;42208;6.376;-10.782;2023-02-28T16:36:26;31.20;99.90
56298;DHT22;42208;6.376;-10.782;2023-02-28T16:38:54;31.50;99.90
56298;DHT22;42208;6.376;-10.782;2023-02-28T16:41:26;31.70;99.90
56298;DHT22;42208;6.376;-10.782;2023-02-28T16:43:57;31.60;99.90
56298;DHT22;42208;6.376;-10.782;2023-02-28T16:46:36;31.60;99.90
56298;DHT22;42208;6.376;-10.782;2023-02-28T16:49:04;31.60;99.90
56298;DHT22;42208;6.376;-10.782;2023-02-28T16:51:36;31.60;99.90
56298;DHT22;42208;6.376;-10.782;2023-02-28T16:54:05;31.70;99.90
56298;DHT22;42208;6.376;-10.782;2023-02-28T16:56:34;31.70;99.90
56298;DHT22;42208;6.376;-10.782;2023-02-28T16:59:03;31.50;99.90
56298;DHT22;42208;6.376;-10.782;2023-02-28T17:01:31;31.20;99.90
56298;DHT22;42208;6.376;-10.782;2023-02-28T17:04:00;31.30;99.90
56298;DHT22;42208;6.376;-10.782;2023-02-28T17:06:29;30.90;99.90
56298;DHT22;42208;6.376;-10.782;2023-02-28T17:08:58;31.00;99.90
56298;DHT22;42208;6.376;-10.782;2023-02-28T17:11:26;31.10;99.90
56298;DHT22;42208;6.376;-10.782;2023-02-28T17:13:55;31.10;99.90
56298;DHT22;42208;6.376;-10.782;2023-02-28T17:16:34;31.10;99.90
56298;DHT22;42208;6.376;-10.782;2023-02-28T17:19:05;31.00;99.90
56298;DHT22;42208;6.376;-10.782;2023-02-28T17:21:34;30.90;99.90
56298;DHT22;42208;6.376;-10.782;2023-02-28T17:24:02;31.10;99.90
56298;DHT22;42208;6.376;-10.782;2023-02-28T17:26:30;30.80;99.90
56298;DHT22;42208;6.376;-10.782;2023-02-28T17:28:59;30.80;99.90
56298;DHT22;42208;6.376;-10.782;2023-02-28T17:31:27;30.70;99.90
56298;DHT22;42208;6.376;-10.782;2023-02-28T17:33:56;30.60;99.90
56298;DHT22;42208;6.376;-10.782;2023-02-28T17:36:26;30.60;99.90
56298;DHT22;42208;6.376;-10.782;2023-02-28T17:38:55;30.70;99.90
56298;DHT22;42208;6.376;-10.782;2023-02-28T17:41:23;30.40;99.90
56298;DHT22;42208;6.376;-10.782;2023-02-28T17:43:52;30.40;99.90
56298;DHT22;42208;6.376;-10.782;2023-02-28T17:46:23;30.00;99.90
56298;DHT22;42208;6.376;-10.782;2023-02-28T17:48:52;29.90;99.90
56298;DHT22;42208;6.376;-10.782;2023-02-28T17:51:22;29.90;99.90
56298;DHT22;42208;6.376;-10.782;2023-02-28T17:53:51;29.90;99.90
56298;DHT22;42208;6.376;-10.782;2023-02-28T17:56:22;29.70;99.90
56298;DHT22;42208;6.376;-10.782;2023-02-28T17:58:52;29.50;99.90
56298;DHT22;42208;6.376;-10.782;2023-02-28T18:01:21;29.50;99.90
56298;DHT22;42208;6.376;-10.782;2023-02-28T18:03:50;29.30;99.90
56298;DHT22;42208;6.376;-10.782;2023-02-28T18:06:25;29.40;99.90
56298;DHT22;42208;6.376;-10.782;2023-02-28T18:08:55;29.40;99.90
56298;DHT22;42208;6.376;-10.782;2023-02-28T18:11:24;29.20;99.90
56298;DHT22;42208;6.376;-10.782;2023-02-28T18:13:53;29.10;99.90
56298;DHT22;42208;6.376;-10.782;2023-02-28T18:30:04;28.90;99.90
56298;DHT22;42208;6.376;-10.782;2023-02-28T18:32:32;28.40;99.90
56298;DHT22;42208;6.376;-10.782;2023-02-28T18:35:00;28.30;99.90
56298;DHT22;42208;6.376;-10.782;2023-02-28T18:37:28;28.20;99.90
56298;DHT22;42208;6.376;-10.782;2023-02-28T18:39:57;28.10;99.90
56298;DHT22;42208;6.376;-10.782;2023-02-28T18:42:25;28.00;99.90